createdAt,value
2019-05-20T00:02:28.494Z,12.27
2019-05-20T00:04:57.302Z,13.07
2019-05-20T00:07:26.532Z,12.53
2019-05-20T00:09:55.990Z,12.80
2019-05-20T00:12:25.037Z,11.23
2019-05-20T00:14:53.983Z,12.33
2019-05-20T00:17:22.891Z,12.63
2019-05-20T00:19:51.836Z,11.40
2019-05-20T00:22:20.662Z,12.70
2019-05-20T00:24:49.744Z,12.17
2019-05-20T00:27:19.204Z,11.70
2019-05-20T00:29:48.163Z,12.97
2019-05-20T00:32:17.033Z,11.73
2019-05-20T00:34:46.050Z,13.43
2019-05-20T00:37:15.310Z,12.43
2019-05-20T00:39:44.376Z,15.03
2019-05-20T00:42:13.564Z,11.90
2019-05-20T00:44:42.755Z,14.23
2019-05-20T00:47:12.133Z,16.50
2019-05-20T00:49:41.336Z,14.20
2019-05-20T00:52:10.346Z,14.03
2019-05-20T00:54:39.440Z,15.70
2019-05-20T00:57:08.518Z,15.40
2019-05-20T00:59:37.582Z,14.37
2019-05-20T01:02:06.789Z,16.17
2019-05-20T01:04:35.776Z,16.63
2019-05-20T01:07:04.808Z,19.13
2019-05-20T01:09:33.761Z,18.70
2019-05-20T01:12:02.835Z,20.40
2019-05-20T01:14:32.110Z,19.03
2019-05-20T01:17:01.097Z,16.77
2019-05-20T01:19:30.329Z,19.03
2019-05-20T01:21:59.347Z,18.20
2019-05-20T01:24:28.638Z,17.03
2019-05-20T01:26:58.274Z,19.23
2019-05-20T01:29:27.172Z,20.43
2019-05-20T01:31:56.157Z,19.70
2019-05-20T01:34:25.204Z,20.73
2019-05-20T01:36:54.263Z,23.10
2019-05-20T01:39:23.737Z,19.90
2019-05-20T01:41:52.785Z,21.47
2019-05-20T01:44:21.955Z,24.60
2019-05-20T01:46:50.830Z,20.73
2019-05-20T01:49:20.156Z,24.87
2019-05-20T01:51:49.372Z,37.73
2019-05-20T01:54:18.487Z,27.63
2019-05-20T01:56:47.312Z,23.33
2019-05-20T01:59:16.627Z,23.23
2019-05-20T02:01:45.820Z,22.80
2019-05-20T02:04:14.830Z,24.07
2019-05-20T02:06:43.882Z,24.30
2019-05-20T02:09:12.952Z,23.07
2019-05-20T02:11:42.214Z,25.97
2019-05-20T02:14:15.594Z,26.47
2019-05-20T02:16:44.540Z,26.03
2019-05-20T02:19:13.886Z,21.07
2019-05-20T02:21:42.844Z,22.23
2019-05-20T02:24:11.958Z,32.13
2019-05-20T02:26:40.834Z,35.87
2019-05-20T02:29:09.909Z,27.00
2019-05-20T02:31:38.985Z,24.63
2019-05-20T02:34:08.098Z,24.27
2019-05-20T02:36:37.174Z,56.37
2019-05-20T02:39:07.140Z,46.90
2019-05-20T02:41:36.479Z,40.23
2019-05-20T02:44:05.524Z,34.80
2019-05-20T02:46:34.549Z,24.80
2019-05-20T02:49:03.572Z,31.63
2019-05-20T02:51:32.696Z,27.07
2019-05-20T02:54:02.492Z,29.97
2019-05-20T02:56:32.121Z,22.50
2019-05-20T02:59:01.803Z,30.77
2019-05-20T03:01:30.979Z,30.07
2019-05-20T03:04:11.809Z,40.77
2019-05-20T03:06:30.966Z,32.40
2019-05-20T03:08:59.957Z,32.03
2019-05-20T03:11:29.251Z,42.70
2019-05-20T03:13:58.079Z,35.83
2019-05-20T03:16:27.460Z,31.30
2019-05-20T03:18:56.794Z,27.80
2019-05-20T03:21:26.171Z,29.60
2019-05-20T03:23:55.306Z,31.57
2019-05-20T03:26:24.603Z,35.17
2019-05-20T03:28:53.474Z,32.97
2019-05-20T03:31:22.513Z,33.00
2019-05-20T03:33:51.785Z,34.00
2019-05-20T03:36:21.131Z,41.47
2019-05-20T03:38:50.056Z,33.87
2019-05-20T03:41:21.759Z,33.30
2019-05-20T03:47:05.890Z,33.33
2019-05-20T03:49:35.214Z,31.83
2019-05-20T03:52:04.382Z,30.83
2019-05-20T03:54:33.628Z,36.60
2019-05-20T03:57:02.693Z,35.83
2019-05-20T03:59:32.219Z,36.40
2019-05-20T04:02:01.165Z,36.07
2019-05-20T04:04:30.445Z,33.90
2019-05-20T04:06:59.585Z,37.23
2019-05-20T04:09:28.567Z,33.30
2019-05-20T04:11:57.516Z,36.97
2019-05-20T04:14:26.455Z,40.23
2019-05-20T04:16:55.791Z,38.73
2019-05-20T04:19:24.781Z,39.73
2019-05-20T04:21:54.052Z,37.00
2019-05-20T04:24:23.102Z,39.43
2019-05-20T04:26:56.674Z,40.10
2019-05-20T04:29:25.707Z,38.40
2019-05-20T04:31:54.712Z,40.63
2019-05-20T04:34:23.578Z,41.43
2019-05-20T04:36:52.495Z,37.57
2019-05-20T04:39:21.455Z,37.73
2019-05-20T04:41:50.678Z,35.73
2019-05-20T04:44:20.536Z,41.47
2019-05-20T04:46:49.496Z,36.20
2019-05-20T04:49:18.356Z,36.43
2019-05-20T04:51:47.408Z,34.60
2019-05-20T04:54:16.399Z,35.03
2019-05-20T04:56:45.265Z,33.27
2019-05-20T04:59:14.179Z,35.60
2019-05-20T05:01:43.411Z,30.40
2019-05-20T05:04:12.589Z,31.57
2019-05-20T05:06:41.541Z,32.80
2019-05-20T05:09:10.463Z,30.97
2019-05-20T05:11:39.455Z,30.73
2019-05-20T05:14:09.164Z,29.00
2019-05-20T05:16:38.435Z,30.20
2019-05-20T05:19:07.795Z,31.30
2019-05-20T05:21:36.803Z,28.67
2019-05-20T05:24:05.847Z,32.03
2019-05-20T05:26:34.959Z,30.17
2019-05-20T05:29:04.247Z,28.23
2019-05-20T05:31:33.272Z,24.93
2019-05-20T05:34:02.593Z,25.73
2019-05-20T05:36:31.944Z,25.07
2019-05-20T05:39:00.914Z,27.23
2019-05-20T05:41:29.849Z,27.97
2019-05-20T05:43:58.711Z,28.43
2019-05-20T05:46:27.639Z,27.00
2019-05-20T05:48:56.917Z,26.70
2019-05-20T05:51:26.135Z,24.87
2019-05-20T05:53:55.147Z,25.80
2019-05-20T05:56:24.339Z,27.47
2019-05-20T05:58:53.289Z,26.67
2019-05-20T06:01:22.252Z,25.60
2019-05-20T06:03:51.137Z,25.83
2019-05-20T06:06:20.132Z,25.93
2019-05-20T06:08:49.192Z,22.30
2019-05-20T06:11:18.047Z,25.10
2019-05-20T06:13:47.231Z,25.27
2019-05-20T06:16:16.181Z,23.77
2019-05-20T06:18:45.210Z,23.37
2019-05-20T06:21:14.644Z,22.70
2019-05-20T06:23:43.700Z,26.50
2019-05-20T06:26:12.818Z,26.57
2019-05-20T06:28:42.255Z,23.90
2019-05-20T06:31:11.152Z,25.80
2019-05-20T06:33:40.170Z,25.43
2019-05-20T06:36:09.563Z,24.70
2019-05-20T06:38:46.003Z,21.37
2019-05-20T06:41:15.483Z,23.13
2019-05-20T06:43:44.686Z,21.70
2019-05-20T06:46:13.707Z,22.90
2019-05-20T06:48:43.019Z,24.27
2019-05-20T06:51:12.533Z,25.43
2019-05-20T06:53:41.613Z,23.93
2019-05-20T06:56:10.905Z,20.87
2019-05-20T06:58:40.089Z,24.70
2019-05-20T07:01:09.502Z,23.77
2019-05-20T07:03:38.423Z,25.13
2019-05-20T07:06:07.486Z,23.67
2019-05-20T07:08:36.650Z,25.07
2019-05-20T07:11:05.991Z,27.30
2019-05-20T07:13:34.853Z,24.40
2019-05-20T07:16:03.973Z,26.93
2019-05-20T07:18:33.256Z,26.73
2019-05-20T07:21:02.329Z,28.07
2019-05-20T07:23:31.325Z,26.10
2019-05-20T07:26:00.208Z,29.17
2019-05-20T07:28:29.444Z,25.30
2019-05-20T07:30:58.439Z,27.70
2019-05-20T07:33:27.862Z,29.10
2019-05-20T07:35:57.157Z,31.10
2019-05-20T07:38:26.399Z,34.57
2019-05-20T07:40:55.659Z,34.40
2019-05-20T07:43:24.759Z,29.03
2019-05-20T07:45:53.764Z,26.33
2019-05-20T07:48:22.945Z,33.80
2019-05-20T07:50:52.932Z,28.60
2019-05-20T07:53:22.768Z,23.83
2019-05-20T07:56:02.867Z,28.17
2019-05-20T07:58:35.352Z,30.73
2019-05-20T08:01:04.383Z,33.10
2019-05-20T08:03:33.261Z,34.17
2019-05-20T08:06:02.372Z,32.03
2019-05-20T08:08:32.398Z,38.57
2019-05-20T08:11:01.446Z,32.47
2019-05-20T08:13:30.447Z,32.57
2019-05-20T08:15:59.614Z,32.67
2019-05-20T08:18:28.659Z,35.97
2019-05-20T08:20:57.651Z,29.30
2019-05-20T08:23:26.682Z,29.97
2019-05-20T08:25:55.720Z,29.87
2019-05-20T08:28:24.771Z,27.10
2019-05-20T08:30:53.860Z,31.83
2019-05-20T08:33:22.904Z,32.00
2019-05-20T08:35:51.876Z,30.07
2019-05-20T08:38:21.145Z,28.77
2019-05-20T08:40:50.079Z,32.77
2019-05-20T08:43:19.179Z,31.47
2019-05-20T08:45:48.426Z,30.77
2019-05-20T08:48:17.405Z,25.83
2019-05-20T08:50:46.503Z,32.23
2019-05-20T08:53:15.531Z,31.83
2019-05-20T08:55:44.571Z,32.10
2019-05-20T08:58:13.940Z,31.30
2019-05-20T09:00:42.924Z,32.13
2019-05-20T09:03:12.594Z,30.23
2019-05-20T09:05:41.479Z,31.23
2019-05-20T09:08:11.209Z,30.27
2019-05-20T09:10:40.247Z,32.07
2019-05-20T09:13:09.402Z,29.90
2019-05-20T09:15:38.544Z,30.77
2019-05-20T09:18:07.941Z,27.63
2019-05-20T09:20:36.962Z,28.70
2019-05-20T09:23:05.950Z,27.67
2019-05-20T09:25:35.063Z,23.40
2019-05-20T09:28:04.112Z,24.13
2019-05-20T09:30:33.186Z,23.57
2019-05-20T09:33:02.795Z,22.37
2019-05-20T09:35:31.895Z,23.47
2019-05-20T09:38:00.984Z,23.63
2019-05-20T09:40:38.415Z,22.93
2019-05-20T09:43:07.618Z,22.80
2019-05-20T09:45:36.966Z,21.53
2019-05-20T09:48:06.465Z,23.17
2019-05-20T09:50:45.051Z,22.40
2019-05-20T09:53:14.053Z,22.60
2019-05-20T09:55:43.407Z,19.93
2019-05-20T09:58:12.531Z,21.23
2019-05-20T10:00:41.858Z,19.87
2019-05-20T10:03:10.946Z,19.50
2019-05-20T10:05:39.872Z,20.67
2019-05-20T10:08:08.907Z,20.03
2019-05-20T10:10:37.963Z,19.83
2019-05-20T10:13:08.339Z,23.47
2019-05-20T10:15:37.595Z,19.70
2019-05-20T10:18:06.600Z,19.83
2019-05-20T10:20:35.977Z,19.53
2019-05-20T10:23:05.009Z,19.87
2019-05-20T10:25:34.036Z,20.77
2019-05-20T10:28:03.095Z,22.73
2019-05-20T10:30:32.495Z,21.13
2019-05-20T10:33:01.527Z,20.03
2019-05-20T10:35:30.537Z,21.73
2019-05-20T10:37:59.551Z,20.93
2019-05-20T10:40:28.469Z,19.77
2019-05-20T10:42:57.345Z,20.43
2019-05-20T10:45:27.354Z,22.00
2019-05-20T10:47:56.338Z,22.57
2019-05-20T10:50:25.735Z,25.80
2019-05-20T10:52:54.673Z,25.07
2019-05-20T10:55:23.698Z,24.80
2019-05-20T10:57:52.735Z,24.03
2019-05-20T11:00:21.796Z,24.17
2019-05-20T11:02:50.736Z,28.07
2019-05-20T11:05:20.101Z,26.53
2019-05-20T11:07:49.820Z,26.70
2019-05-20T11:10:19.276Z,24.40
2019-05-20T11:12:48.306Z,24.67
2019-05-20T11:15:18.066Z,25.87
2019-05-20T11:17:46.940Z,22.17
2019-05-20T11:20:16.049Z,23.73
2019-05-20T11:22:45.016Z,22.97
2019-05-20T11:25:14.423Z,21.80
2019-05-20T11:27:43.475Z,21.70
2019-05-20T11:30:12.925Z,23.00
2019-05-20T11:32:41.973Z,23.67
2019-05-20T11:35:11.519Z,22.63
2019-05-20T11:37:40.623Z,24.17
2019-05-20T11:40:11.496Z,22.23
2019-05-20T11:42:41.750Z,24.90
2019-05-20T11:45:11.245Z,22.13
2019-05-20T11:47:40.302Z,22.73
2019-05-20T11:50:09.952Z,23.93
2019-05-20T11:52:39.078Z,23.63
2019-05-20T11:55:08.313Z,22.63
2019-05-20T11:57:37.350Z,22.33
2019-05-20T12:00:06.942Z,24.60
2019-05-20T12:02:36.018Z,23.70
2019-05-20T12:05:05.474Z,24.33
2019-05-20T12:07:34.626Z,27.70
2019-05-20T12:10:03.922Z,26.77
2019-05-20T12:12:33.127Z,24.80
2019-05-20T12:15:03.155Z,23.93
2019-05-20T12:17:32.942Z,25.50
2019-05-20T12:20:03.004Z,22.97
2019-05-20T12:22:32.701Z,25.77
2019-05-20T12:25:01.794Z,25.20
2019-05-20T12:27:30.689Z,26.70
2019-05-20T12:29:59.807Z,24.77
2019-05-20T12:32:28.655Z,26.17
2019-05-20T12:34:57.700Z,27.43
2019-05-20T12:37:27.030Z,27.73
2019-05-20T12:40:06.372Z,25.80
2019-05-20T12:42:27.206Z,27.90
2019-05-20T12:44:56.172Z,29.17
2019-05-20T12:47:25.210Z,27.67
2019-05-20T12:49:54.239Z,31.33
2019-05-20T12:52:23.360Z,27.20
2019-05-20T12:55:06.982Z,27.57
2019-05-20T12:57:23.084Z,26.73
2019-05-20T12:59:52.040Z,28.43
2019-05-20T13:02:21.266Z,26.57
2019-05-20T13:04:50.356Z,26.87
2019-05-20T13:07:19.357Z,24.30
2019-05-20T13:09:48.431Z,27.43
2019-05-20T13:12:17.654Z,26.33
2019-05-20T13:14:46.922Z,29.23
2019-05-20T13:17:16.623Z,25.93
2019-05-20T13:19:45.744Z,27.10
2019-05-20T13:22:15.189Z,26.57
2019-05-20T13:24:44.281Z,25.90
2019-05-20T13:27:13.254Z,24.97
2019-05-20T13:29:42.228Z,23.57
2019-05-20T13:32:11.294Z,28.97
2019-05-20T13:34:40.430Z,22.17
2019-05-20T13:37:09.787Z,24.93
2019-05-20T13:39:41.028Z,23.90
2019-05-20T13:42:10.112Z,24.60
2019-05-20T13:44:39.158Z,24.43
2019-05-20T13:47:08.205Z,24.90
2019-05-20T13:49:37.384Z,24.50
2019-05-20T13:52:06.495Z,24.93
2019-05-20T13:54:35.489Z,24.03
2019-05-20T13:57:04.440Z,25.27
2019-05-20T13:59:33.347Z,27.43
2019-05-20T14:02:02.606Z,24.53
2019-05-20T14:04:31.438Z,25.67
2019-05-20T14:07:01.391Z,23.03
2019-05-20T14:09:30.363Z,24.93
2019-05-20T14:11:59.337Z,23.00
2019-05-20T14:14:28.579Z,24.73
2019-05-20T14:16:57.903Z,24.30
2019-05-20T14:19:27.361Z,24.53
2019-05-20T14:21:56.403Z,24.80
2019-05-20T14:24:25.632Z,23.57
2019-05-20T14:26:55.002Z,24.70
2019-05-20T14:29:24.035Z,22.33
2019-05-20T14:31:52.930Z,24.13
2019-05-20T14:34:21.893Z,27.37
2019-05-20T14:36:52.965Z,24.70
2019-05-20T14:39:21.506Z,24.70
2019-05-20T14:41:50.477Z,24.27
2019-05-20T14:44:19.527Z,25.80
2019-05-20T14:46:48.450Z,25.00
2019-05-20T14:49:17.805Z,22.07
2019-05-20T14:51:46.780Z,23.73
2019-05-20T14:54:16.023Z,23.53
2019-05-20T14:56:45.007Z,24.77
2019-05-20T14:59:14.105Z,21.77
2019-05-20T15:01:43.254Z,25.40
2019-05-20T15:04:12.192Z,24.03
2019-05-20T15:06:41.186Z,25.93
2019-05-20T15:09:10.232Z,25.20
2019-05-20T15:11:39.165Z,26.40
2019-05-20T15:14:08.256Z,23.60
2019-05-20T15:16:37.617Z,24.33
2019-05-20T15:19:06.901Z,23.90
2019-05-20T15:21:35.761Z,22.23
2019-05-20T15:24:04.809Z,24.10
2019-05-20T15:26:33.819Z,25.77
2019-05-20T15:29:04.125Z,24.87
2019-05-20T15:31:33.676Z,23.77
2019-05-20T15:34:02.740Z,22.93
2019-05-20T15:36:31.635Z,24.97
2019-05-20T15:39:00.913Z,24.47
2019-05-20T15:41:29.875Z,25.97
2019-05-20T15:43:58.874Z,25.40
2019-05-20T15:46:27.869Z,24.30
2019-05-20T15:48:56.959Z,23.67
2019-05-20T15:51:25.990Z,22.60
2019-05-20T15:53:55.012Z,24.33
2019-05-20T15:56:24.264Z,22.33
2019-05-20T15:58:53.212Z,24.57
2019-05-20T16:01:22.171Z,25.20
2019-05-20T16:03:51.707Z,22.90
2019-05-20T16:06:21.103Z,21.20
2019-05-20T16:08:50.058Z,24.00
2019-05-20T16:11:19.088Z,25.63
2019-05-20T16:13:48.351Z,23.47
2019-05-20T16:16:17.503Z,23.03
2019-05-20T16:18:46.546Z,23.30
2019-05-20T16:21:16.025Z,23.03
2019-05-20T16:23:45.090Z,22.93
2019-05-20T16:26:14.093Z,23.47
2019-05-20T16:28:43.052Z,22.70
2019-05-20T16:31:12.018Z,21.80
2019-05-20T16:33:41.622Z,21.67
2019-05-20T16:36:10.549Z,22.10
2019-05-20T16:38:39.819Z,23.07
2019-05-20T16:41:08.754Z,22.63
2019-05-20T16:43:38.079Z,20.63
2019-05-20T16:46:07.069Z,22.23
2019-05-20T16:48:36.010Z,19.50
2019-05-20T16:51:05.009Z,21.20
2019-05-20T16:53:34.003Z,20.97
2019-05-20T16:56:03.019Z,23.77
2019-05-20T16:58:32.360Z,18.57
2019-05-20T17:01:01.380Z,19.63
2019-05-20T17:03:30.333Z,19.63
2019-05-20T17:05:59.311Z,18.70
2019-05-20T17:08:28.931Z,19.63
2019-05-20T17:10:57.795Z,23.13
2019-05-20T17:13:26.694Z,17.20
2019-05-20T17:15:55.629Z,18.20
2019-05-20T17:18:24.726Z,19.80
2019-05-20T17:20:53.753Z,18.07
2019-05-20T17:23:23.024Z,18.43
2019-05-20T17:25:52.063Z,17.60
2019-05-20T17:28:21.025Z,17.83
2019-05-20T17:30:49.976Z,18.17
2019-05-20T17:33:18.868Z,19.53
2019-05-20T17:35:47.755Z,18.27
2019-05-20T17:38:17.072Z,15.43
2019-05-20T17:40:46.375Z,16.93
2019-05-20T17:43:15.595Z,15.93
2019-05-20T17:45:44.640Z,16.77
2019-05-20T17:48:13.979Z,15.73
2019-05-20T17:50:43.011Z,14.93
2019-05-20T17:53:12.114Z,16.67
2019-05-20T17:55:41.270Z,15.90
2019-05-20T17:58:10.580Z,18.50
2019-05-20T18:00:39.866Z,18.10
2019-05-20T18:03:08.925Z,16.33
2019-05-20T18:05:37.933Z,14.83
2019-05-20T18:08:06.915Z,16.87
2019-05-20T18:10:36.399Z,18.63
2019-05-20T18:13:05.824Z,18.43
2019-05-20T18:15:34.882Z,16.87
2019-05-20T18:18:03.903Z,15.33
2019-05-20T18:20:33.030Z,17.10
2019-05-20T18:23:02.087Z,16.67
2019-05-20T18:25:31.365Z,18.37
2019-05-20T18:28:00.666Z,13.90
2019-05-20T18:30:29.643Z,17.27
2019-05-20T18:32:58.812Z,14.07
2019-05-20T18:35:27.766Z,18.43
2019-05-20T18:37:56.815Z,16.07
2019-05-20T18:40:25.792Z,14.77
2019-05-20T18:42:54.744Z,16.37
2019-05-20T18:45:23.838Z,15.10
2019-05-20T18:47:52.862Z,14.00
2019-05-20T18:50:21.891Z,16.47
2019-05-20T18:52:51.515Z,15.10
2019-05-20T18:55:20.559Z,14.50
2019-05-20T18:57:49.770Z,14.93
2019-05-20T19:00:19.495Z,14.53
2019-05-20T19:02:48.474Z,14.77
2019-05-20T19:05:17.632Z,14.00
2019-05-20T19:07:46.614Z,14.20
2019-05-20T19:10:15.760Z,15.40
2019-05-20T19:12:44.594Z,14.03
2019-05-20T19:15:15.128Z,16.23
2019-05-20T19:17:44.106Z,14.43
2019-05-20T19:20:13.238Z,14.30
2019-05-20T19:22:42.162Z,13.80
2019-05-20T19:25:11.516Z,15.00
2019-05-20T19:27:40.878Z,12.30
2019-05-20T19:30:10.372Z,14.50
2019-05-20T19:32:39.671Z,16.63
2019-05-20T19:35:09.118Z,15.70
2019-05-20T19:37:38.276Z,14.63
2019-05-20T19:40:09.051Z,13.98
2019-05-20T19:42:38.501Z,13.57
2019-05-20T19:45:08.283Z,13.97
2019-05-20T19:47:37.592Z,15.33
2019-05-20T19:50:07.378Z,14.00
2019-05-20T19:52:36.525Z,14.93
2019-05-20T19:55:05.888Z,14.93
2019-05-20T19:57:34.892Z,16.33
2019-05-20T20:00:04.521Z,15.77
2019-05-20T20:02:33.612Z,16.07
2019-05-20T20:05:02.643Z,16.63
2019-05-20T20:07:31.761Z,18.07
2019-05-20T20:10:00.642Z,16.27
2019-05-20T20:12:29.953Z,16.53
2019-05-20T20:14:59.245Z,16.43
2019-05-20T20:17:28.287Z,14.50
2019-05-20T20:19:58.310Z,15.83
2019-05-20T20:22:27.383Z,17.70
2019-05-20T20:24:56.316Z,16.50
2019-05-20T20:27:25.322Z,16.70
2019-05-20T20:29:54.337Z,15.77
2019-05-20T20:32:36.818Z,16.27
2019-05-20T20:34:54.075Z,17.17
2019-05-20T20:37:23.360Z,19.00
2019-05-20T20:39:52.300Z,16.37
2019-05-20T20:42:21.316Z,16.20
2019-05-20T20:44:50.362Z,18.80
2019-05-20T20:47:19.334Z,17.67
2019-05-20T20:49:48.352Z,16.73
2019-05-20T20:52:17.844Z,16.70
2019-05-20T20:54:47.011Z,19.27
2019-05-20T20:57:16.287Z,17.57
2019-05-20T20:59:45.411Z,16.10
2019-05-20T21:02:14.393Z,18.70
2019-05-20T21:04:43.464Z,20.53
2019-05-20T21:07:12.807Z,17.77
2019-05-20T21:09:41.670Z,17.53
2019-05-20T21:12:10.678Z,17.43
2019-05-20T21:14:39.989Z,20.50
2019-05-20T21:17:08.937Z,21.33
2019-05-20T21:19:37.846Z,20.37
2019-05-20T21:22:06.804Z,22.53
2019-05-20T21:24:35.759Z,19.83
2019-05-20T21:27:04.902Z,21.17
2019-05-20T21:29:34.389Z,20.70
2019-05-20T21:32:03.291Z,22.87
2019-05-20T21:34:32.352Z,22.77
2019-05-20T21:37:01.642Z,23.13
2019-05-20T21:39:30.980Z,24.57
2019-05-20T21:42:00.026Z,22.10
2019-05-20T21:44:29.382Z,21.47
2019-05-20T21:46:58.311Z,22.57
2019-05-20T21:49:27.206Z,21.50
2019-05-20T21:51:56.134Z,23.10
2019-05-20T21:54:25.109Z,18.93
2019-05-20T21:56:54.190Z,20.27
2019-05-20T21:59:23.210Z,22.10
2019-05-20T22:01:52.235Z,22.17
2019-05-20T22:04:21.476Z,18.67
2019-05-20T22:06:50.527Z,21.00
2019-05-20T22:09:19.751Z,22.17
2019-05-20T22:11:48.834Z,21.30
2019-05-20T22:14:17.979Z,19.73
2019-05-20T22:16:47.133Z,20.63
2019-05-20T22:19:16.111Z,24.17
2019-05-20T22:21:51.805Z,22.33
2019-05-20T22:24:21.156Z,27.67
2019-05-20T22:26:50.153Z,19.57
2019-05-20T22:29:19.176Z,21.63
2019-05-20T22:31:48.502Z,19.13
2019-05-20T22:34:17.927Z,20.60
2019-05-20T22:36:47.104Z,18.73
2019-05-20T22:39:16.547Z,21.47
2019-05-20T22:41:45.579Z,18.57
2019-05-20T22:44:14.539Z,21.30
2019-05-20T22:46:43.694Z,18.77
2019-05-20T22:49:12.740Z,17.60
2019-05-20T22:51:41.642Z,17.10
2019-05-20T22:54:10.742Z,17.60
2019-05-20T22:56:39.842Z,16.50
2019-05-20T22:59:08.859Z,16.67
2019-05-20T23:01:38.256Z,16.23
2019-05-20T23:04:07.307Z,14.93
2019-05-20T23:06:36.247Z,16.60
2019-05-20T23:09:06.356Z,14.13
2019-05-20T23:11:35.465Z,16.77
2019-05-20T23:14:04.576Z,14.83
2019-05-20T23:16:33.759Z,14.43
2019-05-20T23:19:02.830Z,13.77
2019-05-20T23:21:31.759Z,16.20
2019-05-20T23:24:00.712Z,18.17
2019-05-20T23:26:30.131Z,19.03
2019-05-20T23:28:59.117Z,19.33
2019-05-20T23:31:28.702Z,21.90
2019-05-20T23:34:11.674Z,22.43
2019-05-20T23:36:28.544Z,25.50
2019-05-20T23:38:58.006Z,25.50
2019-05-20T23:41:27.105Z,25.13
2019-05-20T23:43:55.959Z,26.53
2019-05-20T23:46:24.923Z,26.93
2019-05-20T23:48:53.803Z,23.23
2019-05-20T23:51:23.129Z,24.80
2019-05-20T23:53:52.084Z,25.77
2019-05-20T23:56:21.123Z,26.60
2019-05-20T23:58:50.245Z,25.67
